createdAt,value
2023-01-27T00:01:18.732Z,0.73
2023-01-27T00:03:47.773Z,1.02
2023-01-27T00:06:16.524Z,0.70
2023-01-27T00:08:45.310Z,0.90
2023-01-27T00:11:31.458Z,0.70
2023-01-27T00:14:00.135Z,0.82
2023-01-27T00:16:30.207Z,1.00
2023-01-27T00:18:58.966Z,0.80
2023-01-27T00:21:45.228Z,0.70
2023-01-27T00:24:32.243Z,0.77
2023-01-27T00:27:00.987Z,1.00
2023-01-27T00:29:29.691Z,0.93
2023-01-27T00:32:17.292Z,1.00
2023-01-27T00:34:45.889Z,0.90
2023-01-27T00:37:14.524Z,0.90
2023-01-27T00:39:43.190Z,0.90
2023-01-27T00:42:14.128Z,0.80
2023-01-27T00:45:03.219Z,0.80
2023-01-27T00:47:33.634Z,0.80
2023-01-27T00:50:04.559Z,0.75
2023-01-27T00:52:33.139Z,0.63
2023-01-27T00:55:01.860Z,0.70
2023-01-27T00:57:30.669Z,0.90
2023-01-27T01:00:00.045Z,0.68
2023-01-27T01:02:28.691Z,0.70
2023-01-27T01:04:58.893Z,0.93
2023-01-27T01:07:27.529Z,0.73
2023-01-27T01:09:56.584Z,0.70
2023-01-27T01:12:25.239Z,0.80
2023-01-27T01:14:53.899Z,0.63
2023-01-27T01:17:23.756Z,0.77
2023-01-27T01:19:52.475Z,0.80
2023-01-27T01:22:22.645Z,0.90
2023-01-27T01:24:51.421Z,0.80
2023-01-27T01:27:20.078Z,0.90
2023-01-27T01:29:48.872Z,0.77
2023-01-27T01:32:17.581Z,0.70
2023-01-27T01:34:46.577Z,1.00
2023-01-27T01:37:15.560Z,0.80
2023-01-27T01:39:45.562Z,0.70
2023-01-27T01:42:14.228Z,0.77
2023-01-27T01:44:45.327Z,1.00
2023-01-27T01:47:17.061Z,0.75
2023-01-27T01:49:48.473Z,0.68
2023-01-27T01:52:22.164Z,0.70
2023-01-27T01:54:53.667Z,1.00
2023-01-27T01:57:23.744Z,0.80
2023-01-27T01:59:53.559Z,0.80
2023-01-27T02:02:25.179Z,0.90
2023-01-27T02:04:57.057Z,0.70
2023-01-27T02:07:30.031Z,0.80
2023-01-27T02:10:00.542Z,0.80
2023-01-27T02:12:29.397Z,0.65
2023-01-27T02:14:58.045Z,0.60
2023-01-27T02:17:26.845Z,0.70
2023-01-27T02:20:00.177Z,0.90
2023-01-27T02:22:35.364Z,0.88
2023-01-27T02:25:08.348Z,0.85
2023-01-27T02:27:38.564Z,0.90
2023-01-27T02:30:07.788Z,1.10
2023-01-27T02:32:37.328Z,1.02
2023-01-27T02:35:07.693Z,0.70
2023-01-27T02:37:36.752Z,0.95
2023-01-27T02:40:06.704Z,0.80
2023-01-27T02:42:35.679Z,0.93
2023-01-27T02:45:05.870Z,0.90
2023-01-27T02:47:34.534Z,0.70
2023-01-27T02:50:03.461Z,1.00
2023-01-27T02:52:32.303Z,1.00
2023-01-27T02:55:01.133Z,0.90
2023-01-27T02:57:29.973Z,0.70
2023-01-27T03:00:19.272Z,0.70
2023-01-27T03:02:48.333Z,0.65
2023-01-27T03:05:17.125Z,0.90
2023-01-27T03:07:45.853Z,0.88
2023-01-27T03:10:15.483Z,0.82
2023-01-27T03:12:45.856Z,0.70
2023-01-27T03:15:33.222Z,0.90
2023-01-27T03:18:17.339Z,0.80
2023-01-27T03:20:47.369Z,1.00
2023-01-27T03:23:16.741Z,0.90
2023-01-27T03:25:50.452Z,0.88
2023-01-27T03:28:19.732Z,0.88
2023-01-27T03:31:02.225Z,0.70
2023-01-27T03:33:43.230Z,0.70
2023-01-27T03:37:04.797Z,0.90
2023-01-27T03:39:51.682Z,0.80
2023-01-27T03:42:38.145Z,0.77
2023-01-27T03:45:25.540Z,0.80
2023-01-27T03:47:54.282Z,0.70
2023-01-27T03:50:37.479Z,1.13
2023-01-27T03:53:07.239Z,1.00
2023-01-27T03:55:36.549Z,0.70
2023-01-27T03:58:14.765Z,0.88
2023-01-27T04:00:43.525Z,0.80
2023-01-27T04:03:29.988Z,0.80
2023-01-27T04:06:17.440Z,0.93
2023-01-27T04:08:46.040Z,0.80
2023-01-27T04:11:32.205Z,0.70
2023-01-27T04:14:03.176Z,0.90
2023-01-27T04:16:31.949Z,0.65
2023-01-27T04:19:00.595Z,0.90
2023-01-27T04:21:30.869Z,0.90
2023-01-27T04:23:59.625Z,0.90
2023-01-27T04:26:33.369Z,0.70
2023-01-27T04:29:02.354Z,0.63
2023-01-27T04:31:32.720Z,0.90
2023-01-27T04:34:01.885Z,0.70
2023-01-27T04:36:31.909Z,0.90
2023-01-27T04:39:07.919Z,0.68
2023-01-27T04:41:38.130Z,1.00
2023-01-27T04:44:08.179Z,0.90
2023-01-27T04:46:36.924Z,0.85
2023-01-27T04:49:06.047Z,0.88
2023-01-27T04:51:36.267Z,0.90
2023-01-27T04:54:05.612Z,1.02
2023-01-27T04:56:35.193Z,1.00
2023-01-27T04:59:04.614Z,0.80
2023-01-27T05:01:33.438Z,0.73
2023-01-27T05:04:02.266Z,0.82
2023-01-27T05:06:31.216Z,0.77
2023-01-27T05:09:01.901Z,0.60
2023-01-27T05:11:30.592Z,0.70
2023-01-27T05:13:59.241Z,0.90
2023-01-27T05:16:28.538Z,0.93
2023-01-27T05:18:57.500Z,0.95
2023-01-27T05:21:28.385Z,0.80
2023-01-27T05:23:57.112Z,1.05
2023-01-27T05:26:28.626Z,0.88
2023-01-27T05:28:58.629Z,0.98
2023-01-27T05:31:42.082Z,0.80
2023-01-27T05:34:10.812Z,0.73
2023-01-27T05:36:39.569Z,0.90
2023-01-27T05:39:09.142Z,1.00
2023-01-27T05:41:39.662Z,0.90
2023-01-27T05:44:08.616Z,0.88
2023-01-27T05:46:40.106Z,0.85
2023-01-27T05:49:11.746Z,0.90
2023-01-27T05:51:41.197Z,1.00
2023-01-27T05:54:09.943Z,1.00
2023-01-27T05:56:40.809Z,1.10
2023-01-27T05:59:09.787Z,0.77
2023-01-27T06:01:40.133Z,1.23
2023-01-27T06:04:10.756Z,1.10
2023-01-27T06:06:39.840Z,0.93
2023-01-27T06:09:08.566Z,0.88
2023-01-27T06:11:37.676Z,1.00
2023-01-27T06:14:08.198Z,1.00
2023-01-27T06:16:37.252Z,1.10
2023-01-27T06:19:05.996Z,1.33
2023-01-27T06:21:34.702Z,0.90
2023-01-27T06:24:04.325Z,0.80
2023-01-27T06:26:33.228Z,1.13
2023-01-27T06:29:02.165Z,1.20
2023-01-27T06:31:32.251Z,1.23
2023-01-27T06:34:00.928Z,1.38
2023-01-27T06:36:29.541Z,1.33
2023-01-27T06:38:58.316Z,1.00
2023-01-27T06:41:26.955Z,0.90
2023-01-27T06:43:58.211Z,1.00
2023-01-27T06:46:27.961Z,1.00
2023-01-27T06:48:58.156Z,1.00
2023-01-27T06:51:27.002Z,1.13
2023-01-27T06:53:55.596Z,2.75
2023-01-27T06:56:26.608Z,1.70
2023-01-27T06:58:55.249Z,2.35
2023-01-27T07:01:24.540Z,2.50
2023-01-27T07:03:53.207Z,3.45
2023-01-27T07:06:23.681Z,3.90
2023-01-27T07:08:54.726Z,2.80
2023-01-27T07:11:25.521Z,2.40
2023-01-27T07:13:54.262Z,1.80
2023-01-27T07:16:22.868Z,2.10
2023-01-27T07:18:51.636Z,1.45
2023-01-27T07:21:20.265Z,1.25
2023-01-27T07:23:50.716Z,1.50
2023-01-27T07:26:25.185Z,1.40
2023-01-27T07:28:54.208Z,1.85
2023-01-27T07:31:22.886Z,1.48
2023-01-27T07:33:51.706Z,1.55
2023-01-27T07:36:20.522Z,1.40
2023-01-27T07:38:52.264Z,1.10
2023-01-27T07:41:23.045Z,1.40
2023-01-27T07:43:52.614Z,1.50
2023-01-27T07:46:21.587Z,1.20
2023-01-27T07:48:50.462Z,1.40
2023-01-27T07:51:19.141Z,1.30
2023-01-27T07:53:47.849Z,1.17
2023-01-27T07:56:17.873Z,1.00
2023-01-27T07:58:46.609Z,1.05
2023-01-27T08:01:15.555Z,1.00
2023-01-27T08:03:44.261Z,1.23
2023-01-27T08:06:14.023Z,0.90
2023-01-27T08:08:42.758Z,1.15
2023-01-27T08:11:14.260Z,1.60
2023-01-27T08:13:44.740Z,1.00
2023-01-27T08:16:14.176Z,1.10
2023-01-27T08:18:42.897Z,1.15
2023-01-27T08:21:12.780Z,1.20
2023-01-27T08:23:42.274Z,1.20
2023-01-27T08:26:11.586Z,1.00
2023-01-27T08:28:40.936Z,1.00
2023-01-27T08:31:12.133Z,1.30
2023-01-27T08:33:40.850Z,1.30
2023-01-27T08:36:14.221Z,1.13
2023-01-27T08:38:43.463Z,0.82
2023-01-27T08:41:13.675Z,1.00
2023-01-27T08:43:42.533Z,1.10
2023-01-27T08:46:12.795Z,1.33
2023-01-27T08:48:41.894Z,1.23
2023-01-27T08:51:10.887Z,0.90
2023-01-27T08:53:39.650Z,0.60
2023-01-27T08:56:09.800Z,0.80
2023-01-27T08:58:38.606Z,0.80
2023-01-27T09:01:08.060Z,0.75
2023-01-27T09:03:38.029Z,0.70
2023-01-27T09:06:07.197Z,0.70
2023-01-27T09:08:35.851Z,1.10
2023-01-27T09:11:09.821Z,0.70
2023-01-27T09:13:38.531Z,0.95
2023-01-27T09:16:10.465Z,0.90
2023-01-27T09:18:42.477Z,0.98
2023-01-27T09:21:11.953Z,0.88
2023-01-27T09:23:40.638Z,1.30
2023-01-27T09:26:09.346Z,1.00
2023-01-27T09:28:38.061Z,0.90
2023-01-27T09:31:08.782Z,1.00
2023-01-27T09:33:38.311Z,0.82
2023-01-27T09:36:11.708Z,1.17
2023-01-27T09:38:42.156Z,0.90
2023-01-27T09:41:25.165Z,0.85
2023-01-27T09:44:12.393Z,0.93
2023-01-27T09:46:46.857Z,1.05
2023-01-27T09:49:24.034Z,0.73
2023-01-27T09:52:00.325Z,1.08
2023-01-27T09:54:44.508Z,1.15
2023-01-27T09:57:16.747Z,0.82
2023-01-27T09:59:53.579Z,0.77
2023-01-27T10:02:28.528Z,1.10
2023-01-27T10:05:06.415Z,0.80
2023-01-27T10:07:49.744Z,0.73
2023-01-27T10:10:32.343Z,0.80
2023-01-27T10:13:05.941Z,0.95
2023-01-27T10:15:43.823Z,0.90
2023-01-27T10:18:19.621Z,0.80
2023-01-27T10:20:51.321Z,1.00
2023-01-27T10:23:25.916Z,1.05
2023-01-27T10:26:00.368Z,0.80
2023-01-27T10:28:30.679Z,0.60
2023-01-27T10:31:01.752Z,1.05
2023-01-27T10:33:39.580Z,1.05
2023-01-27T10:36:10.493Z,0.88
2023-01-27T10:38:44.085Z,1.38
2023-01-27T10:41:20.755Z,1.10
2023-01-27T10:43:54.863Z,0.95
2023-01-27T10:46:27.739Z,1.00
2023-01-27T10:48:59.758Z,1.10
2023-01-27T10:51:30.635Z,0.80
2023-01-27T10:54:02.917Z,0.70
2023-01-27T10:56:35.452Z,0.88
2023-01-27T10:59:06.605Z,0.90
2023-01-27T11:01:37.296Z,0.90
2023-01-27T11:04:11.953Z,0.80
2023-01-27T11:06:42.420Z,0.93
2023-01-27T11:09:18.468Z,0.75
2023-01-27T11:11:49.241Z,0.90
2023-01-27T11:14:23.853Z,0.85
2023-01-27T11:17:05.373Z,0.90
2023-01-27T11:19:43.978Z,0.80
2023-01-27T11:22:17.880Z,1.00
2023-01-27T11:24:49.105Z,0.88
2023-01-27T11:27:26.333Z,1.05
2023-01-27T11:29:58.180Z,1.02
2023-01-27T11:32:33.395Z,1.15
2023-01-27T11:35:04.597Z,1.30
2023-01-27T11:37:34.429Z,1.00
2023-01-27T11:40:04.866Z,1.00
2023-01-27T11:42:35.345Z,0.70
2023-01-27T11:45:04.449Z,1.00
2023-01-27T11:47:36.128Z,0.82
2023-01-27T11:50:05.345Z,1.08
2023-01-27T11:52:36.420Z,0.85
2023-01-27T11:55:08.753Z,1.10
2023-01-27T11:57:38.413Z,0.90
2023-01-27T12:00:09.175Z,1.13
2023-01-27T12:02:39.457Z,1.10
2023-01-27T12:05:09.721Z,1.23
2023-01-27T12:07:51.670Z,1.52
2023-01-27T12:10:28.029Z,0.80
2023-01-27T12:12:56.964Z,1.08
2023-01-27T12:15:27.366Z,1.10
2023-01-27T12:17:57.446Z,0.82
2023-01-27T12:20:28.841Z,0.88
2023-01-27T12:23:00.133Z,0.80
2023-01-27T12:25:31.899Z,0.90
2023-01-27T12:28:01.836Z,1.25
2023-01-27T12:30:31.634Z,0.77
2023-01-27T12:33:00.807Z,0.82
2023-01-27T12:35:31.443Z,0.88
2023-01-27T12:38:01.700Z,0.88
2023-01-27T12:40:31.798Z,0.68
2023-01-27T12:43:12.118Z,1.00
2023-01-27T12:45:41.457Z,1.13
2023-01-27T12:48:20.772Z,0.85
2023-01-27T12:51:06.477Z,0.65
2023-01-27T12:53:35.206Z,0.70
2023-01-27T12:56:12.289Z,0.80
2023-01-27T12:58:43.504Z,0.90
2023-01-27T13:01:24.536Z,0.63
2023-01-27T13:03:54.890Z,0.90
2023-01-27T13:06:27.219Z,0.88
2023-01-27T13:08:56.020Z,1.00
2023-01-27T13:11:32.109Z,0.90
2023-01-27T13:14:01.492Z,0.90
2023-01-27T13:16:30.840Z,0.80
2023-01-27T13:19:00.051Z,0.93
2023-01-27T13:21:31.704Z,0.90
2023-01-27T13:24:01.198Z,1.27
2023-01-27T13:26:33.485Z,1.10
2023-01-27T13:29:05.235Z,1.10
2023-01-27T13:31:37.532Z,0.80
2023-01-27T13:34:08.313Z,1.15
2023-01-27T13:36:39.957Z,0.93
2023-01-27T13:39:13.981Z,0.88
2023-01-27T13:41:46.114Z,1.00
2023-01-27T13:44:19.509Z,0.82
2023-01-27T13:46:51.854Z,1.00
2023-01-27T13:49:27.418Z,0.88
2023-01-27T13:51:59.092Z,1.00
2023-01-27T13:54:30.198Z,1.00
2023-01-27T13:57:08.127Z,1.08
2023-01-27T13:59:41.763Z,0.80
2023-01-27T14:02:26.030Z,1.00
2023-01-27T14:04:59.595Z,0.90
2023-01-27T14:07:31.255Z,1.70
2023-01-27T14:10:06.054Z,1.10
2023-01-27T14:12:48.760Z,1.15
2023-01-27T14:15:24.498Z,1.00
2023-01-27T14:17:56.765Z,1.05
2023-01-27T14:20:43.014Z,1.60
2023-01-27T14:23:18.461Z,1.35
2023-01-27T14:25:51.801Z,1.27
2023-01-27T14:28:24.848Z,1.23
2023-01-27T14:30:57.387Z,1.50
2023-01-27T14:33:32.324Z,1.27
2023-01-27T14:36:04.379Z,1.45
2023-01-27T14:38:34.565Z,1.48
2023-01-27T14:41:11.984Z,1.50
2023-01-27T14:43:46.741Z,1.52
2023-01-27T14:46:20.083Z,1.35
2023-01-27T14:48:55.165Z,1.77
2023-01-27T14:51:29.541Z,1.30
2023-01-27T14:54:06.773Z,2.05
2023-01-27T14:56:42.009Z,1.42
2023-01-27T14:59:16.377Z,1.20
2023-01-27T15:01:48.436Z,1.27
2023-01-27T15:04:31.967Z,1.55
2023-01-27T15:07:02.771Z,1.70
2023-01-27T15:09:47.376Z,1.95
2023-01-27T15:12:23.158Z,1.40
2023-01-27T15:15:00.581Z,1.80
2023-01-27T15:17:35.401Z,2.38
2023-01-27T15:20:25.992Z,1.80
2023-01-27T15:23:00.927Z,3.40
2023-01-27T15:25:33.698Z,4.93
2023-01-27T15:28:03.025Z,3.35
2023-01-27T15:30:34.838Z,2.65
2023-01-27T15:33:06.398Z,2.55
2023-01-27T15:35:38.883Z,2.22
2023-01-27T15:38:19.116Z,2.50
2023-01-27T15:41:06.750Z,2.20
2023-01-27T15:43:44.143Z,2.50
2023-01-27T15:46:28.985Z,1.73
2023-01-27T15:48:58.083Z,1.73
2023-01-27T15:51:27.287Z,2.10
2023-01-27T15:53:57.175Z,1.67
2023-01-27T15:56:40.673Z,1.83
2023-01-27T15:59:14.901Z,1.80
2023-01-27T16:01:44.978Z,1.60
2023-01-27T16:04:16.837Z,1.73
2023-01-27T16:06:47.298Z,1.88
2023-01-27T16:09:21.863Z,1.60
2023-01-27T16:11:59.832Z,2.22
2023-01-27T16:14:43.309Z,2.22
2023-01-27T16:17:20.435Z,2.13
2023-01-27T16:19:53.788Z,3.78
2023-01-27T16:22:23.721Z,3.15
2023-01-27T16:24:56.347Z,3.38
2023-01-27T16:27:32.808Z,2.95
2023-01-27T16:30:09.247Z,3.30
2023-01-27T16:32:40.329Z,3.42
2023-01-27T16:35:22.077Z,3.63
2023-01-27T16:38:01.527Z,3.45
2023-01-27T16:40:31.043Z,4.25
2023-01-27T16:43:06.137Z,7.10
2023-01-27T16:45:43.408Z,4.90
2023-01-27T16:48:22.636Z,5.15
2023-01-27T16:50:51.624Z,4.45
2023-01-27T16:53:21.222Z,4.70
2023-01-27T16:56:00.395Z,5.30
2023-01-27T16:58:43.889Z,6.20
2023-01-27T17:01:22.896Z,5.85
2023-01-27T17:03:55.082Z,4.20
2023-01-27T17:06:24.835Z,4.32
2023-01-27T17:08:53.604Z,3.38
2023-01-27T17:11:25.227Z,3.08
2023-01-27T17:13:58.618Z,3.05
2023-01-27T17:16:28.455Z,2.95
2023-01-27T17:18:59.805Z,3.03
2023-01-27T17:21:32.892Z,3.28
2023-01-27T17:24:03.181Z,3.38
2023-01-27T17:26:32.189Z,3.60
2023-01-27T17:29:00.917Z,3.88
2023-01-27T17:31:29.737Z,4.00
2023-01-27T17:34:02.664Z,3.53
2023-01-27T17:36:31.457Z,3.17
2023-01-27T17:39:01.567Z,3.50
2023-01-27T17:41:40.274Z,3.85
2023-01-27T17:44:13.049Z,5.07
2023-01-27T17:46:42.258Z,6.03
2023-01-27T17:49:17.985Z,5.15
2023-01-27T17:51:48.762Z,8.68
2023-01-27T17:54:23.142Z,5.60
2023-01-27T17:56:53.208Z,3.88
2023-01-27T17:59:23.168Z,3.30
2023-01-27T18:01:53.500Z,3.53
2023-01-27T18:04:27.349Z,2.92
2023-01-27T18:06:56.064Z,2.85
2023-01-27T18:09:27.498Z,3.97
2023-01-27T18:11:58.080Z,4.28
2023-01-27T18:14:27.250Z,3.53
2023-01-27T18:17:03.624Z,4.00
2023-01-27T18:19:34.414Z,3.10
2023-01-27T18:22:13.054Z,2.42
2023-01-27T18:24:42.498Z,2.20
2023-01-27T18:27:21.362Z,2.65
2023-01-27T18:29:52.903Z,2.88
2023-01-27T18:32:23.841Z,2.05
2023-01-27T18:34:55.606Z,2.70
2023-01-27T18:37:26.472Z,2.30
2023-01-27T18:39:55.915Z,2.20
2023-01-27T18:42:25.576Z,2.13
2023-01-27T18:44:54.516Z,2.47
2023-01-27T18:47:26.471Z,2.38
2023-01-27T18:49:59.528Z,2.30
2023-01-27T18:52:28.213Z,2.40
2023-01-27T18:54:57.750Z,2.10
2023-01-27T18:57:26.462Z,1.90
2023-01-27T18:59:55.052Z,2.05
2023-01-27T19:02:23.967Z,1.70
2023-01-27T19:04:52.703Z,2.10
2023-01-27T19:07:25.191Z,2.30
2023-01-27T19:09:53.842Z,2.30
2023-01-27T19:12:22.551Z,2.03
2023-01-27T19:14:51.176Z,3.20
2023-01-27T19:17:24.368Z,2.40
2023-01-27T19:19:53.129Z,2.50
2023-01-27T19:22:23.127Z,2.38
2023-01-27T19:24:51.792Z,2.78
2023-01-27T19:27:21.471Z,2.90
2023-01-27T19:29:56.276Z,2.53
2023-01-27T19:32:24.946Z,2.38
2023-01-27T19:34:53.736Z,3.10
2023-01-27T19:37:24.007Z,2.03
2023-01-27T19:39:52.681Z,2.40
2023-01-27T19:42:21.502Z,2.25
2023-01-27T19:44:50.325Z,2.40
2023-01-27T19:47:19.026Z,2.67
2023-01-27T19:49:47.654Z,2.65
2023-01-27T19:52:16.293Z,2.60
2023-01-27T19:54:46.449Z,2.42
2023-01-27T19:57:17.022Z,2.47
2023-01-27T19:59:46.578Z,2.25
2023-01-27T20:02:15.322Z,2.45
2023-01-27T20:04:44.119Z,2.10
2023-01-27T20:07:13.977Z,2.67
2023-01-27T20:09:42.741Z,11.43
2023-01-27T20:12:23.875Z,3.28
2023-01-27T20:14:53.137Z,4.03
2023-01-27T20:17:21.885Z,4.88
2023-01-27T20:19:50.549Z,11.48
2023-01-27T20:22:19.262Z,8.00
2023-01-27T20:24:48.031Z,7.28
2023-01-27T20:27:18.042Z,11.15
2023-01-27T20:29:47.482Z,4.35
2023-01-27T20:32:17.393Z,3.47
2023-01-27T20:34:46.018Z,2.60
2023-01-27T20:37:17.405Z,2.33
2023-01-27T20:39:46.070Z,2.63
2023-01-27T20:42:14.829Z,3.22
2023-01-27T20:44:44.943Z,2.83
2023-01-27T20:47:15.392Z,2.40
2023-01-27T20:49:45.881Z,2.63
2023-01-27T20:52:14.479Z,2.50
2023-01-27T20:54:43.160Z,2.25
2023-01-27T20:57:14.292Z,2.22
2023-01-27T20:59:43.044Z,2.80
2023-01-27T21:02:13.179Z,3.00
2023-01-27T21:04:42.142Z,2.50
2023-01-27T21:07:11.164Z,2.35
2023-01-27T21:09:39.898Z,2.33
2023-01-27T21:12:10.741Z,2.58
2023-01-27T21:14:40.135Z,3.10
2023-01-27T21:17:11.837Z,3.25
2023-01-27T21:19:41.786Z,3.03
2023-01-27T21:22:10.519Z,3.60
2023-01-27T21:24:39.230Z,4.18
2023-01-27T21:27:08.335Z,3.63
2023-01-27T21:29:37.209Z,3.17
2023-01-27T21:32:06.084Z,2.70
2023-01-27T21:34:35.226Z,2.00
2023-01-27T21:37:05.341Z,1.95
2023-01-27T21:39:33.899Z,1.63
2023-01-27T21:42:20.350Z,1.40
2023-01-27T21:45:06.745Z,1.45
2023-01-27T21:47:35.442Z,1.20
2023-01-27T21:50:04.064Z,1.77
2023-01-27T21:52:36.732Z,2.05
2023-01-27T21:55:06.721Z,1.90
2023-01-27T21:57:36.093Z,1.67
2023-01-27T22:00:05.298Z,1.48
2023-01-27T22:02:40.747Z,1.60
2023-01-27T22:05:09.863Z,1.52
2023-01-27T22:07:40.683Z,1.65
2023-01-27T22:10:09.999Z,1.88
2023-01-27T22:12:38.680Z,1.60
2023-01-27T22:15:15.094Z,2.17
2023-01-27T22:17:44.209Z,1.60
2023-01-27T22:20:14.258Z,1.83
2023-01-27T22:22:46.962Z,3.25
2023-01-27T22:25:17.455Z,3.45
2023-01-27T22:27:46.768Z,2.60
2023-01-27T22:30:16.378Z,2.40
2023-01-27T22:32:45.354Z,2.72
2023-01-27T22:35:18.855Z,1.92
2023-01-27T22:37:49.853Z,1.80
2023-01-27T22:40:18.639Z,1.65
2023-01-27T22:42:47.326Z,1.52
2023-01-27T22:45:16.320Z,1.67
2023-01-27T22:47:47.452Z,1.80
2023-01-27T22:50:16.929Z,1.40
2023-01-27T22:52:45.612Z,1.83
2023-01-27T22:55:15.911Z,1.50
2023-01-27T22:57:47.841Z,1.55
2023-01-27T23:00:16.798Z,1.80
2023-01-27T23:02:45.543Z,1.50
2023-01-27T23:05:15.237Z,1.60
2023-01-27T23:07:45.753Z,1.38
2023-01-27T23:10:15.874Z,1.42
2023-01-27T23:12:44.553Z,1.58
2023-01-27T23:15:13.677Z,1.40
2023-01-27T23:17:42.589Z,1.52
2023-01-27T23:20:12.084Z,1.30
2023-01-27T23:22:41.085Z,1.50
2023-01-27T23:25:10.394Z,1.60
2023-01-27T23:27:42.842Z,1.70
2023-01-27T23:30:13.071Z,2.10
2023-01-27T23:32:41.846Z,1.90
2023-01-27T23:35:11.049Z,1.58
2023-01-27T23:37:39.757Z,1.48
2023-01-27T23:40:09.175Z,1.80
2023-01-27T23:42:37.781Z,1.88
2023-01-27T23:45:08.624Z,1.70
2023-01-27T23:47:37.339Z,1.77
2023-01-27T23:50:06.464Z,1.88
2023-01-27T23:52:35.669Z,1.90
2023-01-27T23:55:04.412Z,1.65
2023-01-27T23:57:33.068Z,1.70
